Terminal Aerodrome Forecast
Issued by NWS Portland, ME

Home | Current Version | Previous Version | Text Only | Print | Product List | Glossary On
Versions: 1 2 3 4 5 6 7 8 9 10 11 12 13 14 15 16
000
FTUS41 KGYX 201735
TAFPWM
TAF
KPWM 201735Z 2018/2118 20012G18KT P6SM BKN040 BKN100
     FM210600 20008KT P6SM BKN025
     FM210900 19003KT 1SM BR BKN006
     FM211300 18010KT 3SM -RA BR OVC005=

USA.gov is the U.S. government's official web portal to all federal, state and local government web resources and services.